createdAt,value
2018-01-19T00:00:58.589Z,2.92
2018-01-19T00:03:26.121Z,3.00
2018-01-19T00:05:53.659Z,3.75
2018-01-19T00:08:21.499Z,4.70
2018-01-19T00:10:49.001Z,1.90
2018-01-19T00:13:16.545Z,2.85
2018-01-19T00:15:44.103Z,2.25
2018-01-19T00:18:11.600Z,2.15
2018-01-19T00:20:40.038Z,1.83
2018-01-19T00:23:07.540Z,1.80
2018-01-19T00:25:35.166Z,2.60
2018-01-19T00:28:02.726Z,2.35
2018-01-19T00:30:30.274Z,2.10
2018-01-19T00:32:58.038Z,2.08
2018-01-19T00:35:25.540Z,1.77
2018-01-19T00:37:53.068Z,2.15
2018-01-19T00:40:20.613Z,2.30
2018-01-19T00:42:48.132Z,2.50
2018-01-19T00:45:15.772Z,3.30
2018-01-19T00:47:43.278Z,3.33
2018-01-19T00:50:10.787Z,3.10
2018-01-19T00:52:38.321Z,2.75
2018-01-19T00:55:05.893Z,1.90
2018-01-19T00:57:33.604Z,2.55
2018-01-19T01:00:01.101Z,1.50
2018-01-19T01:02:28.609Z,3.28
2018-01-19T01:04:56.153Z,2.10
2018-01-19T01:07:23.657Z,2.25
2018-01-19T01:09:51.323Z,3.47
2018-01-19T01:12:19.805Z,3.83
2018-01-19T01:14:47.302Z,2.50
2018-01-19T01:17:14.833Z,1.62
2018-01-19T01:19:42.410Z,1.98
2018-01-19T01:22:09.940Z,1.80
2018-01-19T01:24:37.441Z,1.60
2018-01-19T01:27:04.953Z,1.15
2018-01-19T01:29:32.526Z,1.58
2018-01-19T01:32:00.024Z,3.65
2018-01-19T01:34:27.938Z,1.40
2018-01-19T01:36:55.434Z,2.50
2018-01-19T01:39:22.954Z,0.85
2018-01-19T01:41:50.540Z,1.20
2018-01-19T01:44:18.073Z,1.60
2018-01-19T01:46:46.042Z,1.00
2018-01-19T01:49:13.547Z,0.62
2018-01-19T01:51:41.060Z,1.10
2018-01-19T01:54:08.618Z,0.70
2018-01-19T01:56:36.190Z,0.62
2018-01-19T01:59:04.144Z,0.80
2018-01-19T02:01:31.653Z,0.82
2018-01-19T02:03:59.676Z,0.88
2018-01-19T02:06:27.217Z,0.50
2018-01-19T02:08:54.712Z,1.08
2018-01-19T02:11:22.554Z,0.80
2018-01-19T02:13:50.065Z,0.60
2018-01-19T02:16:17.572Z,0.88
2018-01-19T02:18:45.097Z,0.43
2018-01-19T02:21:12.621Z,0.70
2018-01-19T02:23:40.468Z,0.40
2018-01-19T02:26:07.961Z,0.60
2018-01-19T02:28:35.473Z,0.50
2018-01-19T02:31:03.028Z,0.60
2018-01-19T02:33:30.530Z,0.50
2018-01-19T02:35:58.350Z,0.52
2018-01-19T02:38:25.850Z,0.32
2018-01-19T02:40:53.344Z,0.60
2018-01-19T02:43:20.864Z,0.50
2018-01-19T02:45:48.382Z,0.50
2018-01-19T02:48:16.166Z,0.40
2018-01-19T02:50:43.710Z,0.80
2018-01-19T02:53:11.209Z,1.00
2018-01-19T02:55:38.737Z,1.23
2018-01-19T02:58:06.232Z,0.82
2018-01-19T03:00:33.841Z,0.40
2018-01-19T03:03:01.337Z,0.85
2018-01-19T03:05:28.828Z,1.05
2018-01-19T03:07:56.352Z,0.73
2018-01-19T03:10:23.874Z,0.60
2018-01-19T03:12:51.540Z,0.88
2018-01-19T03:15:19.111Z,1.12
2018-01-19T03:17:46.870Z,1.20
2018-01-19T03:20:14.725Z,0.80
2018-01-19T03:22:43.203Z,1.12
2018-01-19T03:25:10.762Z,0.73
2018-01-19T03:27:38.252Z,1.00
2018-01-19T03:30:05.753Z,1.10
2018-01-19T03:32:33.315Z,0.80
2018-01-19T03:35:00.810Z,0.60
2018-01-19T03:37:28.488Z,0.93
2018-01-19T03:39:56.007Z,0.98
2018-01-19T03:42:23.520Z,0.80
2018-01-19T03:44:51.085Z,0.70
2018-01-19T03:47:18.582Z,0.77
2018-01-19T03:49:46.250Z,0.60
2018-01-19T03:52:13.811Z,0.40
2018-01-19T03:54:41.318Z,1.10
2018-01-19T03:57:08.886Z,0.80
2018-01-19T03:59:36.594Z,0.70
2018-01-19T04:02:04.448Z,0.80
2018-01-19T04:04:31.952Z,0.70
2018-01-19T04:06:59.474Z,1.05
2018-01-19T04:09:27.044Z,1.02
2018-01-19T04:11:54.540Z,1.00
2018-01-19T04:14:22.425Z,0.90
2018-01-19T04:16:49.933Z,0.82
2018-01-19T04:19:17.432Z,0.90
2018-01-19T04:21:44.969Z,1.20
2018-01-19T04:24:12.512Z,1.00
2018-01-19T04:26:40.150Z,1.20
2018-01-19T04:29:07.653Z,1.25
2018-01-19T04:31:35.218Z,1.05
2018-01-19T04:34:02.746Z,0.88
2018-01-19T04:36:30.263Z,1.05
2018-01-19T04:38:58.049Z,1.10
2018-01-19T04:41:25.553Z,0.80
2018-01-19T04:43:53.056Z,1.85
2018-01-19T04:46:20.576Z,1.17
2018-01-19T04:48:48.068Z,1.42
2018-01-19T04:51:15.639Z,1.50
2018-01-19T04:53:43.245Z,1.10
2018-01-19T04:56:10.751Z,1.50
2018-01-19T04:58:38.276Z,0.85
2018-01-19T05:01:05.780Z,1.30
2018-01-19T05:03:33.333Z,0.80
2018-01-19T05:06:00.832Z,1.10
2018-01-19T05:08:28.354Z,1.50
2018-01-19T05:10:56.765Z,1.35
2018-01-19T05:13:24.707Z,1.27
2018-01-19T05:15:52.448Z,1.62
2018-01-19T05:18:19.952Z,1.15
2018-01-19T05:20:47.482Z,0.95
2018-01-19T05:23:15.034Z,1.20
2018-01-19T05:25:42.532Z,0.80
2018-01-19T05:28:10.070Z,1.40
2018-01-19T05:30:37.560Z,1.30
2018-01-19T05:33:05.059Z,1.08
2018-01-19T05:35:32.586Z,1.42
2018-01-19T05:38:00.087Z,1.60
2018-01-19T05:40:27.853Z,1.17
2018-01-19T05:42:55.344Z,1.00
2018-01-19T05:45:22.862Z,1.80
2018-01-19T05:47:50.420Z,1.67
2018-01-19T05:50:17.916Z,1.20
2018-01-19T05:52:45.760Z,2.47
2018-01-19T05:55:13.688Z,0.90
2018-01-19T05:57:41.194Z,0.80
2018-01-19T06:00:08.716Z,1.17
2018-01-19T06:02:36.217Z,1.00
2018-01-19T06:05:04.052Z,0.68
2018-01-19T06:07:31.611Z,1.70
2018-01-19T06:09:59.945Z,0.82
2018-01-19T06:12:27.474Z,1.30
2018-01-19T06:14:55.006Z,0.82
2018-01-19T06:17:22.565Z,1.15
2018-01-19T06:19:50.068Z,0.88
2018-01-19T06:22:17.586Z,0.70
2018-01-19T06:24:45.162Z,0.95
2018-01-19T06:27:12.665Z,1.10
2018-01-19T06:29:40.463Z,1.27
2018-01-19T06:32:07.957Z,1.05
2018-01-19T06:34:35.461Z,1.20
2018-01-19T06:37:02.986Z,1.33
2018-01-19T06:39:30.495Z,0.70
2018-01-19T06:41:58.566Z,1.00
2018-01-19T06:44:26.072Z,1.10
2018-01-19T06:46:53.581Z,1.20
2018-01-19T06:49:21.125Z,0.95
2018-01-19T06:51:48.623Z,1.10
2018-01-19T06:54:16.362Z,1.12
2018-01-19T06:56:44.326Z,0.98
2018-01-19T06:59:11.832Z,0.95
2018-01-19T07:01:39.373Z,0.80
2018-01-19T07:04:06.905Z,0.90
2018-01-19T07:06:34.567Z,1.20
2018-01-19T07:09:02.069Z,0.60
2018-01-19T07:11:29.582Z,1.02
2018-01-19T07:13:57.101Z,1.37
2018-01-19T07:16:24.597Z,1.00
2018-01-19T07:18:52.297Z,1.40
2018-01-19T07:21:19.816Z,1.30
2018-01-19T07:23:47.312Z,0.80
2018-01-19T07:26:14.841Z,0.93
2018-01-19T07:28:42.395Z,1.25
2018-01-19T07:31:09.954Z,0.75
2018-01-19T07:33:37.453Z,0.77
2018-01-19T07:36:04.949Z,0.70
2018-01-19T07:38:33.377Z,1.33
2018-01-19T07:41:00.905Z,1.52
2018-01-19T07:43:28.669Z,0.77
2018-01-19T07:45:56.173Z,1.42
2018-01-19T07:48:23.705Z,0.90
2018-01-19T07:50:51.243Z,1.23
2018-01-19T07:53:18.805Z,1.10
2018-01-19T07:55:46.541Z,0.80
2018-01-19T07:58:14.514Z,0.90
2018-01-19T08:00:42.017Z,0.70
2018-01-19T08:03:09.551Z,1.20
2018-01-19T08:05:37.050Z,0.85
2018-01-19T08:08:04.588Z,1.10
2018-01-19T08:10:32.127Z,0.60
2018-01-19T08:12:59.626Z,1.02
2018-01-19T08:15:27.184Z,1.55
2018-01-19T08:17:54.701Z,1.02
2018-01-19T08:20:22.433Z,1.20
2018-01-19T08:22:49.928Z,1.02
2018-01-19T08:25:17.429Z,1.35
2018-01-19T08:27:44.964Z,1.12
2018-01-19T08:30:12.497Z,1.37
2018-01-19T08:32:41.592Z,1.37
2018-01-19T08:35:09.088Z,0.90
2018-01-19T08:37:36.592Z,0.75
2018-01-19T08:40:04.168Z,1.20
2018-01-19T08:42:31.672Z,1.12
2018-01-19T08:44:59.217Z,0.90
2018-01-19T08:47:26.742Z,0.60
2018-01-19T08:49:54.359Z,0.80
2018-01-19T08:52:21.885Z,0.95
2018-01-19T08:54:49.446Z,1.12
2018-01-19T08:57:17.492Z,1.05
2018-01-19T08:59:44.997Z,0.80
2018-01-19T09:02:12.506Z,0.80
2018-01-19T09:04:40.065Z,0.57
2018-01-19T09:07:07.561Z,1.75
2018-01-19T09:09:35.261Z,1.02
2018-01-19T09:12:03.892Z,0.80
2018-01-19T09:14:31.397Z,1.42
2018-01-19T09:16:58.933Z,0.88
2018-01-19T09:19:26.436Z,0.65
2018-01-19T09:21:54.421Z,1.02
2018-01-19T09:24:21.928Z,1.00
2018-01-19T09:26:49.441Z,1.37
2018-01-19T09:29:16.986Z,1.40
2018-01-19T09:31:44.553Z,1.45
2018-01-19T09:34:12.106Z,0.90
2018-01-19T09:36:40.576Z,0.85
2018-01-19T09:39:08.072Z,1.00
2018-01-19T09:41:35.605Z,1.08
2018-01-19T09:44:03.108Z,1.25
2018-01-19T09:46:30.881Z,1.15
2018-01-19T09:48:58.409Z,0.70
2018-01-19T09:51:26.863Z,0.70
2018-01-19T09:53:54.422Z,0.90
2018-01-19T09:56:21.929Z,0.90
2018-01-19T09:58:49.746Z,1.12
2018-01-19T10:01:17.256Z,1.45
2018-01-19T10:03:44.764Z,1.50
2018-01-19T10:06:12.424Z,3.57
2018-01-19T10:08:39.920Z,1.30
2018-01-19T10:11:07.643Z,0.67
2018-01-19T10:13:35.142Z,1.30
2018-01-19T10:16:02.668Z,1.50
2018-01-19T10:18:30.197Z,1.60
2018-01-19T10:20:57.703Z,1.53
2018-01-19T10:23:25.441Z,1.50
2018-01-19T10:25:52.999Z,1.58
2018-01-19T10:28:20.504Z,1.40
2018-01-19T10:30:48.219Z,0.73
2018-01-19T10:33:15.725Z,1.00
2018-01-19T10:35:43.757Z,1.30
2018-01-19T10:38:11.267Z,3.70
2018-01-19T10:40:38.768Z,1.40
2018-01-19T10:43:06.321Z,1.10
2018-01-19T10:45:33.817Z,0.87
2018-01-19T10:48:01.352Z,1.17
2018-01-19T10:50:29.581Z,2.03
2018-01-19T10:52:57.105Z,1.20
2018-01-19T10:55:24.648Z,1.10
2018-01-19T10:57:52.156Z,1.53
2018-01-19T11:00:19.724Z,1.10
2018-01-19T11:02:47.240Z,1.40
2018-01-19T11:05:14.777Z,0.90
2018-01-19T11:07:42.337Z,1.50
2018-01-19T11:10:09.834Z,1.53
2018-01-19T11:12:37.516Z,1.43
2018-01-19T11:15:05.017Z,0.87
2018-01-19T11:17:32.545Z,1.40
2018-01-19T11:20:00.223Z,0.90
2018-01-19T11:22:27.796Z,1.17
2018-01-19T11:24:55.510Z,1.10
2018-01-19T11:27:23.018Z,0.70
2018-01-19T11:29:50.560Z,1.30
2018-01-19T11:32:18.529Z,0.90
2018-01-19T11:34:46.492Z,1.03
2018-01-19T11:37:14.261Z,1.30
2018-01-19T11:39:41.765Z,0.83
2018-01-19T11:42:09.276Z,0.90
2018-01-19T11:44:36.835Z,1.00
2018-01-19T11:47:04.337Z,1.50
2018-01-19T11:49:32.033Z,1.03
2018-01-19T11:52:00.537Z,1.80
2018-01-19T11:54:28.114Z,0.70
2018-01-19T11:56:55.644Z,0.90
2018-01-19T11:59:23.144Z,1.67
2018-01-19T12:01:50.831Z,1.48
2018-01-19T12:04:18.435Z,0.80
2018-01-19T12:06:46.045Z,0.70
2018-01-19T12:09:13.576Z,1.00
2018-01-19T12:11:41.152Z,0.70
2018-01-19T12:14:08.876Z,0.80
2018-01-19T12:16:36.391Z,1.00
2018-01-19T12:19:03.896Z,0.98
2018-01-19T12:21:31.481Z,0.80
2018-01-19T12:23:59.010Z,0.47
2018-01-19T12:26:26.612Z,1.15
2018-01-19T12:28:54.230Z,0.93
2018-01-19T12:31:21.795Z,1.25
2018-01-19T12:33:49.349Z,0.95
2018-01-19T12:36:17.022Z,1.52
2018-01-19T12:38:44.980Z,0.95
2018-01-19T12:41:12.744Z,1.37
2018-01-19T12:43:41.325Z,0.88
2018-01-19T12:46:08.988Z,1.23
2018-01-19T12:48:36.483Z,0.73
2018-01-19T12:51:04.309Z,1.05
2018-01-19T12:53:31.813Z,0.95
2018-01-19T12:55:59.317Z,1.33
2018-01-19T12:58:26.885Z,1.30
2018-01-19T13:00:54.395Z,0.70
2018-01-19T13:03:22.245Z,0.77
2018-01-19T13:05:49.808Z,0.93
2018-01-19T13:08:17.442Z,1.00
2018-01-19T13:10:44.994Z,0.90
2018-01-19T13:13:12.567Z,0.57
2018-01-19T13:15:40.516Z,0.60
2018-01-19T13:18:08.024Z,1.48
2018-01-19T13:20:35.638Z,1.12
2018-01-19T13:23:03.192Z,1.00
2018-01-19T13:25:30.960Z,1.30
2018-01-19T13:27:58.831Z,0.90
2018-01-19T13:30:26.491Z,0.68
2018-01-19T13:32:54.168Z,0.82
2018-01-19T13:35:22.012Z,1.12
2018-01-19T13:37:49.673Z,1.00
2018-01-19T13:40:17.334Z,0.90
2018-01-19T13:42:44.895Z,0.90
2018-01-19T13:45:12.454Z,1.77
2018-01-19T13:47:40.116Z,1.10
2018-01-19T13:50:07.653Z,1.08
2018-01-19T13:52:35.543Z,1.23
2018-01-19T13:55:03.068Z,1.25
2018-01-19T13:57:30.604Z,0.88
2018-01-19T13:59:58.628Z,0.62
2018-01-19T14:02:26.187Z,1.00
2018-01-19T14:04:53.952Z,1.70
2018-01-19T14:07:21.552Z,0.88
2018-01-19T14:09:49.277Z,1.42
2018-01-19T14:12:16.865Z,1.20
2018-01-19T14:14:44.494Z,1.30
2018-01-19T14:17:12.031Z,1.20
2018-01-19T14:19:39.872Z,1.20
2018-01-19T14:22:07.425Z,1.40
2018-01-19T14:24:34.946Z,1.12
2018-01-19T14:27:02.489Z,0.90
2018-01-19T14:29:30.159Z,1.40
2018-01-19T14:31:58.029Z,0.98
2018-01-19T14:34:25.992Z,1.10
2018-01-19T14:36:54.062Z,0.70
2018-01-19T14:39:21.620Z,2.53
2018-01-19T14:41:49.384Z,1.58
2018-01-19T14:44:16.878Z,1.25
2018-01-19T14:46:44.372Z,0.68
2018-01-19T14:49:12.290Z,0.70
2018-01-19T14:51:39.931Z,0.82
2018-01-19T14:54:07.451Z,0.88
2018-01-19T14:56:34.998Z,1.00
2018-01-19T14:59:02.502Z,0.90
2018-01-19T15:01:30.037Z,0.60
2018-01-19T15:03:57.929Z,1.50
2018-01-19T15:06:25.578Z,0.90
2018-01-19T15:08:53.253Z,0.95
2018-01-19T15:11:21.119Z,1.92
2018-01-19T15:13:48.741Z,2.25
2018-01-19T15:16:16.262Z,2.40
2018-01-19T15:18:43.798Z,1.95
2018-01-19T15:21:11.301Z,2.08
2018-01-19T15:23:38.806Z,2.70
2018-01-19T15:26:06.370Z,3.70
2018-01-19T15:28:34.801Z,19.92
2018-01-19T15:31:02.333Z,5.78
2018-01-19T15:33:29.871Z,2.70
2018-01-19T15:35:57.432Z,2.78
2018-01-19T15:38:24.945Z,2.17
2018-01-19T15:40:52.511Z,1.48
2018-01-19T15:43:20.206Z,1.10
2018-01-19T15:45:47.765Z,0.98
2018-01-19T15:48:15.338Z,1.02
2018-01-19T15:50:42.911Z,1.08
2018-01-19T15:53:10.544Z,1.20
2018-01-19T15:55:38.205Z,1.20
2018-01-19T15:58:06.073Z,1.40
2018-01-19T16:00:33.742Z,1.17
2018-01-19T16:03:01.314Z,1.60
2018-01-19T16:05:28.853Z,1.58
2018-01-19T16:07:56.407Z,1.27
2018-01-19T16:10:23.910Z,1.50
2018-01-19T16:12:51.445Z,1.48
2018-01-19T16:15:19.017Z,1.20
2018-01-19T16:17:46.656Z,1.35
2018-01-19T16:20:14.208Z,3.40
2018-01-19T16:22:42.029Z,1.12
2018-01-19T16:25:09.595Z,3.08
2018-01-19T16:27:37.278Z,1.70
2018-01-19T16:30:05.058Z,2.53
2018-01-19T16:32:32.719Z,2.03
2018-01-19T16:35:00.298Z,2.65
2018-01-19T16:37:28.757Z,2.55
2018-01-19T16:39:56.316Z,3.90
2018-01-19T16:42:24.184Z,2.37
2018-01-19T16:44:51.856Z,1.75
2018-01-19T16:47:19.712Z,2.50
2018-01-19T16:49:47.784Z,2.37
2018-01-19T16:52:15.343Z,2.20
2018-01-19T16:54:43.208Z,1.95
2018-01-19T16:57:10.972Z,2.33
2018-01-19T16:59:39.404Z,1.10
2018-01-19T17:02:07.421Z,1.42
2018-01-19T17:04:35.287Z,1.20
2018-01-19T17:07:03.053Z,3.50
2018-01-19T17:09:30.831Z,1.25
2018-01-19T17:11:59.010Z,1.55
2018-01-19T17:14:27.242Z,1.90
2018-01-19T17:16:55.542Z,2.90
2018-01-19T17:19:23.370Z,1.90
2018-01-19T17:21:52.368Z,1.87
2018-01-19T17:24:20.051Z,2.75
2018-01-19T17:26:47.936Z,3.08
2018-01-19T17:29:15.708Z,2.85
2018-01-19T17:31:43.560Z,2.50
2018-01-19T17:34:14.957Z,4.07
2018-01-19T17:36:42.574Z,2.70
2018-01-19T17:39:10.945Z,2.97
2018-01-19T17:41:38.610Z,3.22
2018-01-19T17:44:06.474Z,3.67
2018-01-19T17:46:34.122Z,4.55
2018-01-19T17:49:01.694Z,4.90
2018-01-19T17:51:30.601Z,4.97
2018-01-19T17:53:59.404Z,4.90
2018-01-19T17:56:27.034Z,5.10
2018-01-19T17:58:57.076Z,5.75
2018-01-19T18:01:25.735Z,5.12
2018-01-19T18:03:54.323Z,5.47
2018-01-19T18:06:22.290Z,4.78
2018-01-19T18:08:49.796Z,5.37
2018-01-19T18:11:17.354Z,6.12
2018-01-19T18:13:44.881Z,5.68
2018-01-19T18:16:12.474Z,7.32
2018-01-19T18:18:40.822Z,8.68
2018-01-19T18:21:10.305Z,8.23
2018-01-19T18:23:38.070Z,6.87
2018-01-19T18:26:05.732Z,5.82
2018-01-19T18:28:33.597Z,5.78
2018-01-19T18:31:01.360Z,5.95
2018-01-19T18:33:28.931Z,5.00
2018-01-19T18:35:56.637Z,5.82
2018-01-19T18:38:24.442Z,5.12
2018-01-19T18:40:52.038Z,7.05
2018-01-19T18:43:19.873Z,7.30
2018-01-19T18:45:47.740Z,7.50
2018-01-19T18:48:15.606Z,7.57
2018-01-19T18:50:43.514Z,6.95
2018-01-19T18:53:11.442Z,7.30
2018-01-19T18:55:39.204Z,10.65
2018-01-19T18:58:07.465Z,8.13
2018-01-19T19:00:35.282Z,6.62
2018-01-19T19:03:03.111Z,6.60
2018-01-19T19:05:31.192Z,7.60
2018-01-19T19:07:59.007Z,7.93
2018-01-19T19:10:26.726Z,8.38
2018-01-19T19:12:55.499Z,10.57
2018-01-19T19:15:23.363Z,9.95
2018-01-19T19:17:51.333Z,8.55
2018-01-19T19:20:19.105Z,8.35
2018-01-19T19:22:46.810Z,10.57
2018-01-19T19:25:14.630Z,10.38
2018-01-19T19:27:42.696Z,11.65
2018-01-19T19:30:11.588Z,12.43
2018-01-19T19:32:39.555Z,9.20
2018-01-19T19:35:07.319Z,8.60
2018-01-19T19:37:35.086Z,7.12
2018-01-19T19:40:03.667Z,7.78
2018-01-19T19:42:32.981Z,7.20
2018-01-19T19:45:00.936Z,9.32
2018-01-19T19:47:28.711Z,9.45
2018-01-19T19:49:56.463Z,7.45
2018-01-19T19:52:24.239Z,7.37
2018-01-19T19:54:52.316Z,10.13
2018-01-19T19:57:20.778Z,11.27
2018-01-19T19:59:48.606Z,10.23
2018-01-19T20:02:16.513Z,9.52
2018-01-19T20:04:44.378Z,10.38
2018-01-19T20:07:13.576Z,7.75
2018-01-19T20:09:41.336Z,11.45
2018-01-19T20:12:09.002Z,10.30
2018-01-19T20:14:36.655Z,11.80
2018-01-19T20:17:04.333Z,11.02
2018-01-19T20:19:32.173Z,13.07
2018-01-19T20:22:00.783Z,10.73
2018-01-19T20:24:29.413Z,9.75
2018-01-19T20:26:57.262Z,11.70
2018-01-19T20:29:26.012Z,11.65
2018-01-19T20:31:54.224Z,11.20
2018-01-19T20:34:22.050Z,8.70
2018-01-19T20:36:50.057Z,7.62
2018-01-19T20:39:17.883Z,8.70
2018-01-19T20:41:45.661Z,8.13
2018-01-19T20:44:13.727Z,7.95
2018-01-19T20:46:41.411Z,8.00
2018-01-19T20:49:09.418Z,7.65
2018-01-19T20:51:37.115Z,7.47
2018-01-19T20:54:04.881Z,8.68
2018-01-19T20:56:32.773Z,7.03
2018-01-19T20:59:00.606Z,7.93
2018-01-19T21:01:29.315Z,9.38
2018-01-19T21:03:57.667Z,6.55
2018-01-19T21:06:25.453Z,7.47
2018-01-19T21:08:53.317Z,6.28
2018-01-19T21:11:21.173Z,5.78
2018-01-19T21:13:48.945Z,5.45
2018-01-19T21:16:17.214Z,5.40
2018-01-19T21:18:45.079Z,5.43
2018-01-19T21:21:12.990Z,4.80
2018-01-19T21:23:40.998Z,4.40
2018-01-19T21:26:08.666Z,4.05
2018-01-19T21:28:36.445Z,3.17
2018-01-19T21:31:04.200Z,4.60
2018-01-19T21:33:32.123Z,4.40
2018-01-19T21:35:59.837Z,4.32
2018-01-19T21:38:27.600Z,3.70
2018-01-19T21:40:55.466Z,4.35
2018-01-19T21:43:23.333Z,4.05
2018-01-19T21:45:51.647Z,4.95
2018-01-19T21:48:19.298Z,3.60
2018-01-19T21:50:47.037Z,3.28
2018-01-19T21:53:15.208Z,2.60
2018-01-19T21:55:43.117Z,2.50
2018-01-19T21:58:11.269Z,3.37
2018-01-19T22:00:38.941Z,2.30
2018-01-19T22:03:06.775Z,2.80
2018-01-19T22:05:34.626Z,3.05
2018-01-19T22:08:02.303Z,3.08
2018-01-19T22:10:29.902Z,2.65
2018-01-19T22:12:57.729Z,3.22
2018-01-19T22:15:25.642Z,2.80
2018-01-19T22:17:53.210Z,2.17
2018-01-19T22:20:20.928Z,3.25
2018-01-19T22:22:48.784Z,2.92
2018-01-19T22:25:16.317Z,2.60
2018-01-19T22:27:43.903Z,2.72
2018-01-19T22:30:11.568Z,3.62
2018-01-19T22:32:39.227Z,3.87
2018-01-19T22:35:07.130Z,3.65
2018-01-19T22:37:34.666Z,3.50
2018-01-19T22:40:02.317Z,4.57
2018-01-19T22:42:29.983Z,5.47
2018-01-19T22:44:57.481Z,3.58
2018-01-19T22:47:25.606Z,3.30
2018-01-19T22:49:53.188Z,2.80
2018-01-19T22:52:20.713Z,2.80
2018-01-19T22:54:48.292Z,2.28
2018-01-19T22:57:15.842Z,2.80
2018-01-19T22:59:43.700Z,2.70
2018-01-19T23:02:11.201Z,2.67
2018-01-19T23:04:38.704Z,2.33
2018-01-19T23:07:06.285Z,2.15
2018-01-19T23:09:33.785Z,2.05
2018-01-19T23:12:02.016Z,2.65
2018-01-19T23:14:29.575Z,3.55
2018-01-19T23:16:57.134Z,4.03
2018-01-19T23:19:24.694Z,3.30
2018-01-19T23:21:52.296Z,3.87
2018-01-19T23:24:20.016Z,3.30
2018-01-19T23:26:47.518Z,4.53
2018-01-19T23:29:15.044Z,3.20
2018-01-19T23:31:42.595Z,3.60
2018-01-19T23:34:10.553Z,3.62
2018-01-19T23:36:38.222Z,4.00
2018-01-19T23:39:05.734Z,3.25
2018-01-19T23:41:33.233Z,3.70
2018-01-19T23:44:00.796Z,3.58
2018-01-19T23:46:28.459Z,3.53
2018-01-19T23:48:56.222Z,3.00
2018-01-19T23:51:23.723Z,3.10
2018-01-19T23:53:51.266Z,3.00
2018-01-19T23:56:18.800Z,2.95
2018-01-19T23:58:46.301Z,3.00
